Check out our new BloomSky Weather System.

Active alerts


No alerts


Thunder radar  blitzortung!


Rain radar more information rain snow radar


Visit our other weather sites:

Template documentation
and downloads

And another site



Weather Underground History page Text

Daily Summary for March 19, 2017 Units:  English    Metric   Both
« Previous Day
Next Day »
Daily Weekly Monthly Yearly Custom
  High: Low: Average:
Temperature: TemperatureF °F 61.7 °F 73.1 °F
Dew Point: DewpointF °F 61.2 °F 65.9 °F
Humidity: Humidity % 48 % 80 %
Wind Speed: WindSpeedMPH mph 0.0 mph 2.6 mph
Wind Gust: WindSpeedGustMPH mph - -
Wind:- - South
Pressure: PressureIn in 30.15 in -
Precipitation: 0.00 in    
Historical Graphs
 
 
Tabular Data for March 19, 2017
Time Temperature Dew Point Pressure Wind Wind Speed Wind Gust Humidity Rainfall Rate (Hourly)
TemperatureF °F DewpointF °F PressureIn in Calm     Humidity % HourlyPrecipIn in
00:01 70.5 °F 66.7 °F 30.24 in South 1.0 mph 6.0 mph 88 % 0.00 in
00:06 70.5 °F 66.7 °F 30.24 in Calm   6.0 mph 88 % 0.00 in
00:11 70.3 °F 66.6 °F 30.24 in Calm   3.0 mph 88 % 0.00 in
00:16 70.3 °F 66.6 °F 30.24 in Calm   3.0 mph 88 % 0.00 in
00:21 70.2 °F 66.7 °F 30.24 in SSW 2.0 mph 3.0 mph 89 % 0.00 in
00:26 70.0 °F 66.6 °F 30.24 in South 3.0 mph 5.0 mph 89 % 0.00 in
00:31 70.0 °F 66.6 °F 30.24 in SSE 1.0 mph 5.0 mph 89 % 0.00 in
00:36 70.0 °F 66.9 °F 30.24 in SW 2.0 mph 5.0 mph 90 % 0.00 in
00:41 69.6 °F 66.6 °F 30.24 in Calm   5.0 mph 90 % 0.00 in
00:46 69.6 °F 66.6 °F 30.24 in SSE 2.0 mph 3.0 mph 90 % 0.00 in
00:51 69.6 °F 66.9 °F 30.24 in Calm   4.0 mph 91 % 0.00 in
00:56 69.4 °F 66.7 °F 30.24 in SSE 2.0 mph 4.0 mph 91 % 0.00 in
01:01 69.4 °F 66.7 °F 30.23 in SSW 3.0 mph 4.0 mph 91 % 0.00 in
01:06 69.4 °F 67.1 °F 30.24 in SSW 1.0 mph 5.0 mph 92 % 0.00 in
01:11 69.3 °F 66.9 °F 30.23 in SSW 5.0 mph 7.0 mph 92 % 0.00 in
01:16 69.3 °F 66.9 °F 30.23 in SSW 2.0 mph 7.0 mph 92 % 0.00 in
01:21 69.1 °F 66.7 °F 30.23 in SSW 2.0 mph 7.0 mph 92 % 0.00 in
01:26 68.9 °F 66.6 °F 30.23 in Calm   5.0 mph 92 % 0.00 in
01:31 68.7 °F 66.6 °F 30.23 in South 3.0 mph 4.0 mph 93 % 0.00 in
01:36 68.7 °F 66.6 °F 30.23 in SW 6.0 mph 6.0 mph 93 % 0.00 in
01:41 68.7 °F 66.6 °F 30.23 in SSE 2.0 mph 7.0 mph 93 % 0.00 in
01:46 68.5 °F 66.4 °F 30.23 in South 2.0 mph 7.0 mph 93 % 0.00 in
01:51 68.5 °F 66.7 °F 30.23 in SSW 2.0 mph 7.0 mph 94 % 0.00 in
01:56 68.4 °F 66.6 °F 30.23 in Calm   4.0 mph 94 % 0.00 in
02:01 68.4 °F 66.6 °F 30.23 in SSE 1.0 mph 5.0 mph 94 % 0.00 in
02:06 68.4 °F 66.6 °F 30.23 in SSE 1.0 mph 5.0 mph 94 % 0.00 in
02:11 68.2 °F 66.4 °F 30.23 in South 5.0 mph 5.0 mph 94 % 0.00 in
02:16 68.2 °F 66.4 °F 30.23 in SW 1.0 mph 6.0 mph 94 % 0.00 in
02:21 68.2 °F 66.7 °F 30.23 in SSW 1.0 mph 6.0 mph 95 % 0.00 in
02:26 68.0 °F 66.6 °F 30.23 in SSE 2.0 mph 6.0 mph 95 % 0.00 in
02:31 68.0 °F 66.6 °F 30.23 in SSW 3.0 mph 6.0 mph 95 % 0.00 in
02:36 67.8 °F 66.4 °F 30.23 in South 2.0 mph 6.0 mph 95 % 0.00 in
02:41 68.0 °F 66.6 °F 30.22 in SSW 3.0 mph 6.0 mph 95 % 0.00 in
02:46 67.8 °F 66.4 °F 30.22 in Calm   7.0 mph 95 % 0.00 in
02:52 67.8 °F 66.4 °F 30.22 in SE 2.0 mph 7.0 mph 95 % 0.00 in
02:57 67.8 °F 66.4 °F 30.22 in SSE 3.0 mph 7.0 mph 95 % 0.00 in
03:02 67.6 °F 66.2 °F 30.22 in SSW 1.0 mph 6.0 mph 95 % 0.00 in
03:07 67.6 °F 66.2 °F 30.22 in SSW 3.0 mph 4.0 mph 95 % 0.00 in
03:12 67.5 °F 66.0 °F 30.22 in Calm   4.0 mph 95 % 0.00 in
03:17 67.5 °F 66.2 °F 30.22 in Calm   3.0 mph 96 % 0.00 in
03:22 67.5 °F 66.2 °F 30.22 in WSW 4.0 mph 4.0 mph 96 % 0.00 in
03:27 67.5 °F 66.2 °F 30.22 in SSW 1.0 mph 6.0 mph 96 % 0.00 in
03:32 67.3 °F 66.0 °F 30.22 in South 1.0 mph 6.0 mph 96 % 0.00 in
03:37 67.3 °F 66.0 °F 30.22 in SSW 1.0 mph 6.0 mph 96 % 0.00 in
03:42 67.3 °F 66.0 °F 30.22 in SW 1.0 mph 6.0 mph 96 % 0.00 in
03:47 67.1 °F 65.8 °F 30.22 in SSW 2.0 mph 6.0 mph 96 % 0.00 in
03:52 67.1 °F 65.8 °F 30.22 in Calm   6.0 mph 96 % 0.00 in
03:57 67.1 °F 65.8 °F 30.21 in SSW 2.0 mph 6.0 mph 96 % 0.00 in
04:02 66.9 °F 65.7 °F 30.21 in Calm   6.0 mph 96 % 0.00 in
04:07 66.9 °F 65.7 °F 30.21 in SSW 1.0 mph 5.0 mph 96 % 0.00 in
04:12 66.9 °F 65.7 °F 30.21 in Calm   5.0 mph 96 % 0.00 in
04:17 66.7 °F 65.5 °F 30.21 in SSE 2.0 mph 4.0 mph 96 % 0.00 in
04:22 66.7 °F 65.8 °F 30.21 in Calm   3.0 mph 97 % 0.00 in
04:27 66.6 °F 65.3 °F 30.21 in Calm   3.0 mph 96 % 0.00 in
04:32 66.6 °F 65.7 °F 30.21 in Calm   4.0 mph 97 % 0.00 in
04:37 66.4 °F 65.5 °F 30.21 in SW 1.0 mph 4.0 mph 97 % 0.00 in
04:42 66.4 °F 65.1 °F 30.21 in Calm   4.0 mph 96 % 0.00 in
04:47 66.0 °F 65.1 °F 30.21 in Calm   2.0 mph 97 % 0.00 in
04:52 66.0 °F 65.1 °F 30.21 in Calm   2.0 mph 97 % 0.00 in
04:57 65.8 °F 64.9 °F 30.21 in Calm   2.0 mph 97 % 0.00 in
05:02 65.8 °F 64.9 °F 30.21 in Calm   2.0 mph 97 % 0.00 in
05:07 65.8 °F 64.9 °F 30.21 in SSW 1.0 mph 2.0 mph 97 % 0.00 in
05:12 65.8 °F 64.9 °F 30.21 in Calm   1.0 mph 97 % 0.00 in
05:17 65.7 °F 64.8 °F 30.21 in Calm   1.0 mph 97 % 0.00 in
05:22 65.7 °F 64.8 °F 30.22 in Calm   1.0 mph 97 % 0.00 in
05:27 65.7 °F 64.8 °F 30.22 in Calm   2.0 mph 97 % 0.00 in
05:32 65.8 °F 65.3 °F 30.22 in Calm   2.0 mph 98 % 0.00 in
05:37 65.8 °F 65.3 °F 30.22 in Calm   2.0 mph 98 % 0.00 in
05:42 65.7 °F 64.8 °F 30.22 in Calm   1.0 mph 97 % 0.00 in
05:47 65.7 °F 65.1 °F 30.22 in Calm     98 % 0.00 in
05:52 65.5 °F 64.6 °F 30.22 in Calm     97 % 0.00 in
05:57 65.5 °F 64.6 °F 30.22 in Calm     97 % 0.00 in
06:02 65.1 °F 64.2 °F 30.22 in Calm     97 % 0.00 in
06:07 64.9 °F 64.0 °F 30.22 in Calm     97 % 0.00 in
06:12 64.8 °F 63.9 °F 30.22 in Calm     97 % 0.00 in
06:17 64.6 °F 63.7 °F 30.23 in Calm     97 % 0.00 in
06:22 64.6 °F 63.7 °F 30.23 in Calm     97 % 0.00 in
06:27 64.2 °F 63.3 °F 30.23 in Calm     97 % 0.00 in
06:32 64.0 °F 63.1 °F 30.23 in Calm     97 % 0.00 in
06:37 63.9 °F 63.0 °F 30.23 in Calm     97 % 0.00 in
06:42 63.9 °F 63.3 °F 30.23 in Calm     98 % 0.00 in
06:47 63.7 °F 62.8 °F 30.23 in Calm     97 % 0.00 in
06:52 63.3 °F 62.4 °F 30.24 in Calm     97 % 0.00 in
06:57 63.0 °F 62.1 °F 30.24 in Calm     97 % 0.00 in
06:58 63.0 °F 62.1 °F 30.24 in Calm     97 % 0.00 in
07:03 62.8 °F 61.9 °F 30.24 in Calm     97 % 0.00 in
07:08 63.0 °F 62.4 °F 30.24 in Calm     98 % 0.00 in
07:13 63.0 °F 62.4 °F 30.24 in Calm     98 % 0.00 in
07:18 62.6 °F 62.1 °F 30.24 in Calm     98 % 0.00 in
07:23 62.2 °F 61.7 °F 30.24 in Calm     98 % 0.00 in
07:28 62.2 °F 61.7 °F 30.24 in Calm     98 % 0.00 in
07:33 62.2 °F 61.7 °F 30.24 in Calm     98 % 0.00 in
07:38 62.1 °F 61.5 °F 30.24 in Calm     98 % 0.00 in
07:43 61.9 °F 61.3 °F 30.24 in Calm     98 % 0.00 in
07:48 61.7 °F 61.2 °F 30.25 in Calm     98 % 0.00 in
07:53 61.7 °F 61.2 °F 30.25 in Calm     98 % 0.00 in
07:58 61.9 °F 61.3 °F 30.25 in Calm     98 % 0.00 in
08:03 62.2 °F 61.7 °F 30.25 in Calm     98 % 0.00 in
08:08 62.6 °F 62.2 °F 30.25 in Calm     99 % 0.00 in
08:13 63.0 °F 62.6 °F 30.25 in Calm     99 % 0.00 in
08:18 63.3 °F 63.0 °F 30.26 in Calm     99 % 0.00 in
08:23 63.9 °F 63.5 °F 30.26 in Calm     99 % 0.00 in
08:28 64.6 °F 64.2 °F 30.26 in Calm     99 % 0.00 in
08:33 65.1 °F 64.8 °F 30.26 in Calm     99 % 0.00 in
08:38 65.5 °F 65.1 °F 30.27 in Calm     99 % 0.00 in
08:43 65.7 °F 65.3 °F 30.27 in Calm   1.0 mph 99 % 0.00 in
08:48 66.0 °F 65.7 °F 30.27 in SSW 2.0 mph 2.0 mph 99 % 0.00 in
08:53 66.2 °F 65.8 °F 30.27 in Calm   2.0 mph 99 % 0.00 in
08:58 66.6 °F 66.2 °F 30.27 in Calm   2.0 mph 99 % 0.00 in
09:03 66.6 °F 66.0 °F 30.27 in Calm   2.0 mph 98 % 0.00 in
09:08 66.7 °F 66.4 °F 30.27 in Calm   2.0 mph 99 % 0.00 in
09:13 66.9 °F 66.6 °F 30.27 in Calm   2.0 mph 99 % 0.00 in
09:18 67.5 °F 67.1 °F 30.27 in SSW 2.0 mph 3.0 mph 99 % 0.00 in
09:23 68.0 °F 67.6 °F 30.27 in Calm   3.0 mph 99 % 0.00 in
09:28 68.5 °F 68.2 °F 30.27 in Calm   3.0 mph 99 % 0.00 in
09:33 69.1 °F 68.7 °F 30.27 in SW 1.0 mph 3.0 mph 99 % 0.00 in
09:38 69.4 °F 68.9 °F 30.27 in SSW 4.0 mph 4.0 mph 98 % 0.00 in
09:43 70.0 °F 69.4 °F 30.27 in SW 4.0 mph 5.0 mph 98 % 0.00 in
09:48 70.2 °F 69.3 °F 30.27 in SSE 1.0 mph 5.0 mph 97 % 0.00 in
09:53 70.3 °F 69.1 °F 30.27 in SSW 4.0 mph 5.0 mph 96 % 0.00 in
09:54 70.3 °F 69.1 °F 30.27 in South 4.0 mph 5.0 mph 96 % 0.00 in
09:59 70.9 °F 69.6 °F 30.27 in WNW 2.0 mph 7.0 mph 96 % 0.00 in
10:04 71.4 °F 70.0 °F 30.27 in SSW 9.0 mph 9.0 mph 95 % 0.00 in
10:05 71.4 °F 69.6 °F 30.27 in SSW 4.0 mph 7.0 mph 94 % 0.00 in
10:10 72.0 °F 69.4 °F 30.27 in WNW 3.0 mph 9.0 mph 92 % 0.00 in
10:15 72.3 °F 69.3 °F 30.27 in SSW 4.0 mph 10.0 mph 90 % 0.00 in
10:20 72.9 °F 69.4 °F 30.27 in SW 8.0 mph 10.0 mph 89 % 0.00 in
10:25 73.2 °F 69.4 °F 30.27 in SW 4.0 mph 11.0 mph 88 % 0.00 in
10:30 73.8 °F 69.6 °F 30.27 in SW 3.0 mph 11.0 mph 87 % 0.00 in
10:35 74.3 °F 69.8 °F 30.27 in South 2.0 mph 10.0 mph 86 % 0.00 in
10:40 75.4 °F 69.8 °F 30.27 in SW 2.0 mph 9.0 mph 83 % 0.00 in
10:45 75.6 °F 69.6 °F 30.28 in SE 6.0 mph 9.0 mph 82 % 0.00 in
10:50 76.3 °F 70.3 °F 30.28 in WNW 2.0 mph 9.0 mph 82 % 0.00 in
10:55 77.0 °F 69.6 °F 30.28 in WNW 2.0 mph 8.0 mph 78 % 0.00 in
11:00 77.4 °F 69.6 °F 30.28 in SW 1.0 mph 8.0 mph 77 % 0.00 in
11:05 77.5 °F 68.9 °F 30.28 in SSW 1.0 mph 6.0 mph 75 % 0.00 in
11:10 77.7 °F 68.7 °F 30.28 in West 2.0 mph 6.0 mph 74 % 0.00 in
11:15 77.4 °F 68.9 °F 30.28 in WSW 3.0 mph 4.0 mph 75 % 0.00 in
11:20 77.0 °F 67.6 °F 30.28 in Calm   6.0 mph 73 % 0.00 in
11:25 76.8 °F 67.8 °F 30.28 in SSW 1.0 mph 6.0 mph 74 % 0.00 in
11:30 76.6 °F 67.3 °F 30.27 in South 4.0 mph 6.0 mph 73 % 0.00 in
11:35 77.2 °F 68.2 °F 30.27 in SW 1.0 mph 6.0 mph 74 % 0.00 in
11:41 77.5 °F 67.5 °F 30.27 in West 5.0 mph 6.0 mph 71 % 0.00 in
11:46 77.7 °F 68.4 °F 30.27 in WNW 2.0 mph 6.0 mph 73 % 0.00 in
11:51 78.3 °F 67.6 °F 30.27 in SE 2.0 mph 6.0 mph 70 % 0.00 in
11:56 78.3 °F 67.6 °F 30.27 in North 1.0 mph 6.0 mph 70 % 0.00 in
12:01 78.4 °F 66.2 °F 30.27 in WNW 2.0 mph 7.0 mph 66 % 0.00 in
12:06 78.4 °F 66.6 °F 30.27 in West 3.0 mph 7.0 mph 67 % 0.00 in
12:11 79.0 °F 67.1 °F 30.27 in SSW 3.0 mph 7.0 mph 67 % 0.00 in
12:16 79.2 °F 66.4 °F 30.27 in SW 2.0 mph 9.0 mph 65 % 0.00 in
12:21 79.5 °F 68.0 °F 30.27 in SSE 2.0 mph 9.0 mph 68 % 0.00 in
12:26 80.4 °F 67.1 °F 30.26 in SW 2.0 mph 9.0 mph 64 % 0.00 in
12:31 80.4 °F 66.7 °F 30.26 in SSW 4.0 mph 8.0 mph 63 % 0.00 in
12:36 79.5 °F 65.8 °F 30.26 in SSE 3.0 mph 8.0 mph 63 % 0.00 in
12:41 79.0 °F 66.6 °F 30.26 in WNW 2.0 mph 8.0 mph 66 % 0.00 in
12:46 79.9 °F 67.1 °F 30.26 in SSE 1.0 mph 8.0 mph 65 % 0.00 in
12:51 81.1 °F 67.3 °F 30.25 in West 2.0 mph 8.0 mph 63 % 0.00 in
12:56 81.0 °F 66.7 °F 30.25 in SW 1.0 mph 7.0 mph 62 % 0.00 in
13:01 81.7 °F 66.4 °F 30.25 in WSW 5.0 mph 6.0 mph 60 % 0.00 in
13:06 81.7 °F 67.5 °F 30.25 in West 2.0 mph 6.0 mph 62 % 0.00 in
13:11 82.2 °F 66.0 °F 30.25 in SE 4.0 mph 6.0 mph 58 % 0.00 in
13:16 82.6 °F 69.1 °F 30.25 in SSW 4.0 mph 9.0 mph 64 % 0.00 in
13:21 82.2 °F 66.4 °F 30.24 in South 1.0 mph 9.0 mph 59 % 0.00 in
13:26 82.0 °F 66.4 °F 30.24 in West 5.0 mph 9.0 mph 59 % 0.00 in
13:31 82.2 °F 66.9 °F 30.24 in Calm   9.0 mph 60 % 0.00 in
13:36 82.6 °F 65.8 °F 30.24 in NNE 1.0 mph 9.0 mph 57 % 0.00 in
13:41 82.0 °F 65.3 °F 30.24 in SW 2.0 mph 6.0 mph 57 % 0.00 in
13:46 82.2 °F 66.9 °F 30.23 in SSW 1.0 mph 4.0 mph 60 % 0.00 in
13:51 82.6 °F 66.4 °F 30.23 in SW 2.0 mph 7.0 mph 58 % 0.00 in
13:56 82.2 °F 64.9 °F 30.23 in SW 1.0 mph 7.0 mph 56 % 0.00 in
14:01 81.9 °F 65.7 °F 30.23 in Calm   7.0 mph 58 % 0.00 in
14:06 82.0 °F 66.4 °F 30.22 in SSW 4.0 mph 5.0 mph 59 % 0.00 in
14:11 82.4 °F 66.2 °F 30.22 in SSW 2.0 mph 6.0 mph 58 % 0.00 in
14:16 82.6 °F 68.2 °F 30.22 in SSE 1.0 mph 6.0 mph 62 % 0.00 in
14:21 82.9 °F 67.1 °F 30.22 in SW 3.0 mph 6.0 mph 59 % 0.00 in
14:26 82.8 °F 66.0 °F 30.22 in South 2.0 mph 6.0 mph 57 % 0.00 in
14:31 82.6 °F 66.4 °F 30.22 in South 8.0 mph 8.0 mph 58 % 0.00 in
14:36 82.2 °F 66.0 °F 30.21 in SW 3.0 mph 8.0 mph 58 % 0.00 in
14:41 81.7 °F 64.4 °F 30.21 in SE 7.0 mph 8.0 mph 56 % 0.00 in
14:46 81.1 °F 65.5 °F 30.21 in SW 6.0 mph 9.0 mph 59 % 0.00 in
14:51 81.5 °F 66.7 °F 30.21 in ESE 5.0 mph 9.0 mph 61 % 0.00 in
14:56 81.7 °F 64.9 °F 30.20 in SSW 1.0 mph 9.0 mph 57 % 0.00 in
15:01 82.0 °F 64.8 °F 30.20 in SSW 3.0 mph 9.0 mph 56 % 0.00 in
15:06 82.2 °F 62.8 °F 30.20 in SW 7.0 mph 13.0 mph 52 % 0.00 in
15:11 82.4 °F 63.5 °F 30.20 in South 5.0 mph 13.0 mph 53 % 0.00 in
15:16 82.6 °F 63.7 °F 30.19 in ESE 8.0 mph 13.0 mph 53 % 0.00 in
15:21 82.6 °F 63.7 °F 30.19 in SW 1.0 mph 13.0 mph 53 % 0.00 in
15:26 82.4 °F 64.0 °F 30.19 in SW 5.0 mph 13.0 mph 54 % 0.00 in
15:32 82.8 °F 64.9 °F 30.19 in SW 4.0 mph 10.0 mph 55 % 0.00 in
15:37 83.3 °F 63.9 °F 30.19 in WSW 4.0 mph 10.0 mph 52 % 0.00 in
15:42 83.8 °F 63.9 °F 30.19 in South 4.0 mph 10.0 mph 51 % 0.00 in
15:47 83.8 °F 62.6 °F 30.19 in SE 7.0 mph 12.0 mph 49 % 0.00 in
15:52 83.7 °F 63.0 °F 30.19 in SSW 4.0 mph 12.0 mph 50 % 0.00 in
15:57 82.9 °F 64.0 °F 30.18 in SSE 4.0 mph 12.0 mph 53 % 0.00 in
16:02 83.1 °F 64.8 °F 30.18 in SSW 6.0 mph 11.0 mph 54 % 0.00 in
16:07 83.7 °F 64.2 °F 30.18 in SSW 5.0 mph 11.0 mph 52 % 0.00 in
16:12 83.8 °F 64.9 °F 30.18 in SSW 6.0 mph 11.0 mph 53 % 0.00 in
16:17 83.8 °F 64.9 °F 30.18 in SW 5.0 mph 11.0 mph 53 % 0.00 in
16:22 84.0 °F 64.6 °F 30.17 in ESE 2.0 mph 11.0 mph 52 % 0.00 in
16:27 84.4 °F 64.2 °F 30.17 in SW 2.0 mph 10.0 mph 51 % 0.00 in
16:32 84.6 °F 64.4 °F 30.17 in SSW 5.0 mph 9.0 mph 51 % 0.00 in
16:37 84.4 °F 63.7 °F 30.17 in SSW 5.0 mph 10.0 mph 50 % 0.00 in
16:42 84.4 °F 63.7 °F 30.17 in SW 6.0 mph 10.0 mph 50 % 0.00 in
16:47 84.0 °F 63.3 °F 30.17 in SSW 5.0 mph 11.0 mph 50 % 0.00 in
16:52 84.2 °F 62.4 °F 30.17 in SSW 3.0 mph 11.0 mph 48 % 0.00 in
16:57 83.7 °F 62.4 °F 30.17 in South 6.0 mph 11.0 mph 49 % 0.00 in
17:02 83.1 °F 62.6 °F 30.16 in South 5.0 mph 9.0 mph 50 % 0.00 in
17:07 83.5 °F 64.0 °F 30.16 in SSW 5.0 mph 9.0 mph 52 % 0.00 in
17:12 83.5 °F 64.0 °F 30.17 in SSW 1.0 mph 10.0 mph 52 % 0.00 in
17:17 83.1 °F 62.6 °F 30.17 in South 2.0 mph 10.0 mph 50 % 0.00 in
17:22 82.4 °F 62.4 °F 30.16 in SSW 3.0 mph 10.0 mph 51 % 0.00 in
17:27 82.0 °F 62.6 °F 30.16 in SSE 3.0 mph 9.0 mph 52 % 0.00 in
17:32 82.0 °F 62.1 °F 30.16 in SE 4.0 mph 9.0 mph 51 % 0.00 in
17:37 82.8 °F 63.3 °F 30.16 in South 1.0 mph 9.0 mph 52 % 0.00 in
17:42 83.3 °F 63.3 °F 30.16 in SSE 2.0 mph 9.0 mph 51 % 0.00 in
17:47 83.1 °F 63.1 °F 30.16 in South 4.0 mph 9.0 mph 51 % 0.00 in
17:52 82.9 °F 63.0 °F 30.16 in SSE 4.0 mph 8.0 mph 51 % 0.00 in
17:57 82.8 °F 62.8 °F 30.16 in South 7.0 mph 8.0 mph 51 % 0.00 in
18:02 82.2 °F 63.3 °F 30.15 in SE 5.0 mph 7.0 mph 53 % 0.00 in
18:07 82.2 °F 63.3 °F 30.15 in South 4.0 mph 11.0 mph 53 % 0.00 in
18:12 82.0 °F 63.1 °F 30.15 in SSW 5.0 mph 11.0 mph 53 % 0.00 in
18:17 82.0 °F 63.1 °F 30.15 in SW 5.0 mph 11.0 mph 53 % 0.00 in
18:22 81.7 °F 63.5 °F 30.15 in SSW 2.0 mph 8.0 mph 54 % 0.00 in
18:27 81.3 °F 63.7 °F 30.15 in South 3.0 mph 8.0 mph 55 % 0.00 in
18:32 81.1 °F 64.0 °F 30.15 in SSW 4.0 mph 8.0 mph 56 % 0.00 in
18:36 81.7 °F 63.9 °F 30.15 in South 1.0 mph 6.0 mph 55 % 0.00 in
18:41 81.9 °F 67.6 °F 30.15 in East 3.0 mph 8.0 mph 62 % 0.00 in
18:46 81.7 °F 68.7 °F 30.15 in ESE 3.0 mph 8.0 mph 65 % 0.00 in
18:51 81.1 °F 68.7 °F 30.15 in SE 2.0 mph 9.0 mph 66 % 0.00 in
18:56 81.0 °F 68.5 °F 30.15 in SW 8.0 mph 9.0 mph 66 % 0.00 in
19:01 80.8 °F 68.7 °F 30.15 in SSE 5.0 mph 10.0 mph 67 % 0.00 in
19:06 80.2 °F 68.7 °F 30.15 in SSW 5.0 mph 11.0 mph 68 % 0.00 in
19:11 79.7 °F 68.5 °F 30.15 in South 4.0 mph 11.0 mph 69 % 0.00 in
19:17 79.2 °F 68.5 °F 30.16 in South 8.0 mph 12.0 mph 70 % 0.00 in
19:22 78.8 °F 68.5 °F 30.15 in SSE 5.0 mph 12.0 mph 71 % 0.00 in
19:27 78.6 °F 68.9 °F 30.15 in SSE 3.0 mph 12.0 mph 72 % 0.00 in
19:32 78.3 °F 68.5 °F 30.16 in SW 5.0 mph 12.0 mph 72 % 0.00 in
19:33 78.1 °F 68.7 °F 30.16 in SE 7.0 mph 12.0 mph 73 % 0.00 in
19:38 77.7 °F 68.4 °F 30.16 in SSE 6.0 mph 12.0 mph 73 % 0.00 in
19:43 77.5 °F 68.5 °F 30.16 in ESE 7.0 mph 12.0 mph 74 % 0.00 in
19:48 77.4 °F 68.4 °F 30.16 in SE 5.0 mph 10.0 mph 74 % 0.00 in
19:53 77.2 °F 68.7 °F 30.16 in SSE 8.0 mph 11.0 mph 75 % 0.00 in
19:58 76.8 °F 68.7 °F 30.16 in South 5.0 mph 12.0 mph 76 % 0.00 in
20:03 76.6 °F 68.9 °F 30.16 in SSE 6.0 mph 12.0 mph 77 % 0.00 in
20:08 76.5 °F 68.7 °F 30.16 in SSE 3.0 mph 12.0 mph 77 % 0.00 in
20:13 76.3 °F 68.5 °F 30.16 in SE 6.0 mph 11.0 mph 77 % 0.00 in
20:18 75.9 °F 68.5 °F 30.16 in SE 6.0 mph 11.0 mph 78 % 0.00 in
20:23 75.9 °F 68.5 °F 30.16 in SE 2.0 mph 9.0 mph 78 % 0.00 in
20:28 75.6 °F 68.5 °F 30.17 in SSE 4.0 mph 9.0 mph 79 % 0.00 in
20:33 75.4 °F 68.4 °F 30.17 in ESE 5.0 mph 8.0 mph 79 % 0.00 in
20:38 75.2 °F 68.5 °F 30.17 in SE 6.0 mph 11.0 mph 80 % 0.00 in
20:43 75.0 °F 68.4 °F 30.17 in SE 7.0 mph 11.0 mph 80 % 0.00 in
20:48 74.8 °F 68.2 °F 30.17 in South 5.0 mph 11.0 mph 80 % 0.00 in
20:53 74.7 °F 68.4 °F 30.17 in SE 6.0 mph 10.0 mph 81 % 0.00 in
20:58 74.5 °F 68.2 °F 30.17 in SSW 4.0 mph 8.0 mph 81 % 0.00 in
21:03 74.1 °F 68.2 °F 30.17 in SE 5.0 mph 11.0 mph 82 % 0.00 in
21:08 74.1 °F 68.2 °F 30.17 in SE 6.0 mph 11.0 mph 82 % 0.00 in
21:13 73.9 °F 68.2 °F 30.17 in SE 6.0 mph 11.0 mph 82 % 0.00 in
21:18 73.8 °F 68.0 °F 30.17 in SSE 5.0 mph 11.0 mph 82 % 0.00 in
21:23 73.6 °F 68.2 °F 30.18 in SSW 5.0 mph 11.0 mph 83 % 0.00 in
21:28 73.4 °F 68.0 °F 30.18 in SSE 5.0 mph 11.0 mph 83 % 0.00 in
21:33 73.2 °F 67.8 °F 30.18 in SSE 4.0 mph 12.0 mph 83 % 0.00 in
21:34 73.2 °F 67.8 °F 30.18 in SSE 4.0 mph 12.0 mph 83 % 0.00 in
21:39 73.2 °F 67.8 °F 30.18 in SE 7.0 mph 12.0 mph 83 % 0.00 in
21:44 73.0 °F 68.0 °F 30.18 in South 7.0 mph 12.0 mph 84 % 0.00 in
21:49 72.9 °F 67.8 °F 30.18 in SSE 3.0 mph 12.0 mph 84 % 0.00 in
21:54 72.7 °F 67.8 °F 30.19 in SE 6.0 mph 12.0 mph 85 % 0.00 in
21:59 72.5 °F 67.8 °F 30.19 in South 4.0 mph 12.0 mph 85 % 0.00 in
22:04 72.3 °F 67.6 °F 30.19 in South 3.0 mph 9.0 mph 85 % 0.00 in
22:09 72.1 °F 67.6 °F 30.19 in SSE 2.0 mph 9.0 mph 86 % 0.00 in
22:14 72.0 °F 67.5 °F 30.19 in SSE 6.0 mph 9.0 mph 86 % 0.00 in
22:19 71.8 °F 67.6 °F 30.19 in SSE 3.0 mph 9.0 mph 87 % 0.00 in
22:24 71.8 °F 67.6 °F 30.19 in SSE 6.0 mph 9.0 mph 87 % 0.00 in
22:29 71.4 °F 67.3 °F 30.19 in South 4.0 mph 12.0 mph 87 % 0.00 in
22:34 71.4 °F 67.3 °F 30.20 in WSW 6.0 mph 13.0 mph 87 % 0.00 in
22:39 71.2 °F 67.5 °F 30.19 in ESE 5.0 mph 13.0 mph 88 % 0.00 in
22:44 71.1 °F 67.3 °F 30.19 in SSE 5.0 mph 13.0 mph 88 % 0.00 in
22:49 70.9 °F 67.5 °F 30.19 in South 4.0 mph 10.0 mph 89 % 0.00 in
22:54 70.7 °F 67.3 °F 30.19 in ESE 7.0 mph 9.0 mph 89 % 0.00 in
22:59 70.5 °F 67.1 °F 30.19 in SSE 2.0 mph 8.0 mph 89 % 0.00 in
23:04 70.3 °F 67.3 °F 30.19 in SSE 5.0 mph 9.0 mph 90 % 0.00 in
23:09 70.3 °F 67.3 °F 30.19 in ESE 4.0 mph 9.0 mph 90 % 0.00 in
23:15 70.2 °F 67.1 °F 30.19 in South 4.0 mph 9.0 mph 90 % 0.00 in
23:20 70.2 °F 67.1 °F 30.19 in South 3.0 mph 7.0 mph 90 % 0.00 in
23:25 70.0 °F 67.3 °F 30.19 in SE 2.0 mph 9.0 mph 91 % 0.00 in
23:30 70.0 °F 67.3 °F 30.19 in SE 2.0 mph 9.0 mph 91 % 0.00 in
23:35 70.0 °F 67.3 °F 30.19 in SW 3.0 mph 9.0 mph 91 % 0.00 in
23:40 69.8 °F 67.1 °F 30.19 in SE 2.0 mph 8.0 mph 91 % 0.00 in
23:45 69.6 °F 66.9 °F 30.19 in SSW 2.0 mph 8.0 mph 91 % 0.00 in
23:50 69.6 °F 66.9 °F 30.19 in SSE 2.0 mph 7.0 mph 91 % 0.00 in
23:55 69.4 °F 67.1 °F 30.19 in South 2.0 mph 6.0 mph 92 % 0.00 in
Spring, Texas: Villages of Bridgestone
Compliments of Weather Underground - 2.75 mb

Script developed by  Jim McMurry - jmcmurry@mwt.net Adapted for the template by  Wim van der Kuil - Leuven-Template.eu

You find our weather info also at:

UK Metoffice

WeatherCloud

Weather Underground

Mid-South Weather Network

AWEKAS

Citizen Weather Observer Program (CWOP)

HAMweather, WeatherForYou, PWS Weather

Equipment we use:

Weather-station
Davis Vantage Vue

Weather-program
Meteohub

Weather-server
Debian 7.9 x86 (Guest)

Provider
DreamHost

Davis Vantage Vue

Meteohub

Debian 7.9 x86 (Guest)

DreamHost